createdAt,value
2018-11-01T00:00:02.896Z,16.40
2018-11-01T00:02:33.325Z,16.30
2018-11-01T00:05:03.433Z,16.30
2018-11-01T00:07:33.750Z,16.20
2018-11-01T00:10:03.182Z,16.20
2018-11-01T00:12:33.793Z,16.20
2018-11-01T00:15:03.194Z,16.20
2018-11-01T00:17:33.622Z,16.20
2018-11-01T00:20:02.897Z,16.20
2018-11-01T00:22:32.334Z,16.20
2018-11-01T00:25:01.682Z,16.20
2018-11-01T00:27:31.125Z,16.20
2018-11-01T00:30:01.157Z,16.20
2018-11-01T00:32:30.654Z,16.20
2018-11-01T00:34:59.802Z,16.20
2018-11-01T00:37:29.672Z,16.10
2018-11-01T00:39:59.166Z,16.10
2018-11-01T00:42:28.338Z,16.10
2018-11-01T00:44:57.649Z,16.10
2018-11-01T00:47:26.981Z,16.10
2018-11-01T00:49:57.291Z,16.10
2018-11-01T00:52:26.785Z,16.10
2018-11-01T00:54:56.308Z,16.10
2018-11-01T00:57:25.814Z,16.10
2018-11-01T00:59:55.409Z,16.10
2018-11-01T01:02:24.710Z,16.10
2018-11-01T01:04:53.858Z,16.10
2018-11-01T01:07:23.925Z,16.10
2018-11-01T01:09:54.151Z,16.20
2018-11-01T01:12:24.149Z,16.20
2018-11-01T01:14:53.978Z,16.20
2018-11-01T01:17:23.502Z,16.20
2018-11-01T01:19:53.612Z,16.20
2018-11-01T01:22:22.588Z,16.30
2018-11-01T01:24:51.614Z,16.30
2018-11-01T01:27:21.405Z,16.30
2018-11-01T01:29:50.598Z,16.30
2018-11-01T01:32:19.868Z,16.30
2018-11-01T01:34:48.770Z,16.30
2018-11-01T01:37:18.294Z,16.30
2018-11-01T01:39:47.762Z,16.30
2018-11-01T01:42:16.985Z,16.30
2018-11-01T01:44:45.982Z,16.30
2018-11-01T01:47:14.994Z,16.40
2018-11-01T01:49:44.041Z,16.40
2018-11-01T01:52:13.337Z,16.40
2018-11-01T01:54:42.834Z,16.50
2018-11-01T01:57:11.886Z,16.50
2018-11-01T01:59:41.693Z,16.70
2018-11-01T02:02:10.687Z,16.80
2018-11-01T02:04:39.790Z,16.90
2018-11-01T02:07:09.520Z,17.00
2018-11-01T02:09:39.203Z,17.10
2018-11-01T02:12:09.534Z,17.20
2018-11-01T02:14:39.647Z,17.20
2018-11-01T02:17:08.725Z,17.30
2018-11-01T02:19:38.031Z,17.40
2018-11-01T02:22:07.361Z,17.40
2018-11-01T02:24:36.842Z,17.50
2018-11-01T02:27:06.242Z,17.50
2018-11-01T02:29:35.239Z,17.60
2018-11-01T02:32:04.352Z,17.60
2018-11-01T02:34:33.462Z,17.70
2018-11-01T02:37:02.625Z,17.60
2018-11-01T02:39:31.885Z,17.70
2018-11-01T02:42:02.114Z,17.80
2018-11-01T02:44:31.550Z,17.80
2018-11-01T02:47:00.640Z,17.90
2018-11-01T02:49:30.466Z,17.90
2018-11-01T02:51:59.758Z,17.90
2018-11-01T02:54:29.381Z,17.90
2018-11-01T02:56:58.435Z,17.90
2018-11-01T02:59:27.605Z,17.90
2018-11-01T03:01:56.833Z,17.90
2018-11-01T03:04:25.841Z,17.80
2018-11-01T03:06:55.043Z,17.70
2018-11-01T03:09:24.199Z,17.50
2018-11-01T03:11:53.546Z,17.40
2018-11-01T03:14:22.611Z,17.30
2018-11-01T03:16:51.843Z,17.20
2018-11-01T03:19:20.908Z,17.20
2018-11-01T03:21:50.134Z,17.10
2018-11-01T03:24:19.497Z,17.10
2018-11-01T03:26:48.933Z,17.10
2018-11-01T03:29:18.137Z,17.10
2018-11-01T03:31:47.426Z,17.10
2018-11-01T03:34:16.511Z,17.30
2018-11-01T03:36:45.830Z,17.40
2018-11-01T03:39:15.235Z,17.60
2018-11-01T03:41:44.534Z,17.80
2018-11-01T03:44:13.663Z,17.90
2018-11-01T03:46:43.139Z,18.10
2018-11-01T03:49:12.213Z,18.20
2018-11-01T03:51:41.306Z,18.30
2018-11-01T03:54:10.233Z,18.40
2018-11-01T03:56:39.974Z,18.50
2018-11-01T03:59:10.060Z,18.60
2018-11-01T04:01:40.010Z,18.60
2018-11-01T04:04:09.241Z,18.60
2018-11-01T04:06:38.320Z,18.70
2018-11-01T04:09:10.034Z,18.70
2018-11-01T04:11:39.313Z,18.70
2018-11-01T04:14:09.054Z,18.70
2018-11-01T04:16:38.427Z,18.80
2018-11-01T04:19:07.786Z,18.80
2018-11-01T04:21:36.837Z,18.90
